Terminal Aerodrome Forecast
Issued by NWS

Home | Current Version | Previous Version | Text Only | Print | Product List | Glossary Off
Versions: 1 2 3 4 5 6 7 8 9 10 11 12 13 14 15 16 17 18 19 20 21 22 23 24 25 26 27 28 29 30 31 32 33 34

166
FTUS43 KGRB 222333
TAFATW
TAF
KATW 222333Z 2300/2324 35007KT P6SM SCT120
     FM230600 33006KT 6SM BR BKN012
     FM230900 36010KT P6SM SCT014 BKN035
     FM231400 01012G18KT P6SM SCT040 BKN250=

USA.gov is the U.S. government's official web portal to all federal, state and local government web resources and services.